Time;durP1;ratioP1;P1;durP2;ratioP2;P2;SDS_P1;SDS_P2;PMS_P1;PMS_P2;Temp;Humidity;BMP_temperature;BMP_pressure;BME280_temperature;BME280_humidity;BME280_pressure;Samples;Min_cycle;Max_cycle;Signal;HPM_P1;HPM_P2
2021/09/28 00:00:44;;;;;;;77.25;51.53;;;15.20;99.90;;;;;;2602769;54;20026;31
2021/09/28 00:07:03;;;;;;;72.45;47.45;;;15.10;99.90;;;;;;2601733;54;19923;31
2021/09/28 00:13:01;;;;;;;65.75;45.60;;;15.10;99.90;;;;;;2602293;54;20038;31
2021/09/28 00:15:59;;;;;;;80.93;50.03;;;15.10;99.90;;;;;;2603192;46;20029;31
2021/09/28 00:19:00;;;;;;;77.55;51.92;;;15.10;99.90;;;;;;2602907;54;20918;31
2021/09/28 00:25:03;;;;;;;60.03;44.67;;;15.20;99.90;;;;;;2631102;54;20034;-94
2021/09/28 00:31:08;;;;;;;;;;;15.10;99.90;;;;;;2603303;46;20121;31
2021/09/28 00:33:56;;;;;;;63.13;43.67;;;15.10;99.90;;;;;;2602862;46;20759;31
2021/09/28 00:36:32;;;;;;;71.32;49.10;;;15.10;99.90;;;;;;2603132;46;20878;31
2021/09/28 00:39:09;;;;;;;48.10;37.65;;;15.10;99.90;;;;;;2602278;54;20023;31
2021/09/28 00:42:08;;;;;;;55.85;41.30;;;15.10;99.90;;;;;;2602834;47;20026;31
2021/09/28 00:45:04;;;;;;;52.85;39.05;;;15.10;99.90;;;;;;2701706;39;22450;31
2021/09/28 00:47:41;;;;;;;50.65;36.15;;;15.10;99.90;;;;;;2602868;46;20928;31
2021/09/28 00:50:22;;;;;;;63.58;43.28;;;15.10;99.90;;;;;;2602291;46;20022;31
2021/09/28 01:01:47;;;;;;;52.17;37.30;;;15.00;99.90;;;;;;2603510;46;20949;31
2021/09/28 01:04:22;;;;;;;47.60;35.63;;;15.00;99.90;;;;;;2603014;46;20893;31
2021/09/28 01:06:54;;;;;;;56.25;38.65;;;15.00;99.90;;;;;;2602922;47;20034;31
2021/09/28 01:09:25;;;;;;;47.25;34.67;;;15.00;99.90;;;;;;2602751;47;20026;31
2021/09/28 01:12:03;;;;;;;52.10;36.60;;;14.90;99.90;;;;;;2603224;46;20029;31
2021/09/28 01:14:36;;;;;;;41.58;32.65;;;14.90;99.90;;;;;;2602871;46;20250;31
2021/09/28 01:17:12;;;;;;;41.05;32.83;;;14.90;99.90;;;;;;2603317;46;20085;31
2021/09/28 01:19:44;;;;;;;41.63;32.53;;;14.90;99.90;;;;;;2602881;47;20157;31
2021/09/28 01:22:19;;;;;;;35.45;29.13;;;14.90;99.90;;;;;;2603344;46;20731;31
2021/09/28 01:24:51;;;;;;;50.05;35.03;;;14.90;99.90;;;;;;2602903;54;20026;31
2021/09/28 01:27:26;;;;;;;43.10;33.38;;;14.80;99.90;;;;;;2603035;47;20049;31
2021/09/28 01:30:00;;;;;;;46.45;34.88;;;14.90;99.90;;;;;;2603316;46;20069;31
2021/09/28 01:32:38;;;;;;;41.42;31.95;;;14.80;99.90;;;;;;2602762;47;20124;31
2021/09/28 01:35:12;;;;;;;37.63;31.33;;;14.80;99.90;;;;;;2603344;46;20064;31
2021/09/28 01:37:49;;;;;;;46.15;33.65;;;14.80;99.90;;;;;;2603205;46;20844;31
2021/09/28 01:40:24;;;;;;;50.88;36.08;;;14.70;99.90;;;;;;2603248;46;20852;31
2021/09/28 01:43:07;;;;;;;37.85;29.27;;;14.70;99.90;;;;;;2602615;47;20022;31
2021/09/28 01:45:38;;;;;;;44.97;31.67;;;14.60;99.90;;;;;;2602654;54;20862;31
2021/09/28 01:48:08;;;;;;;44.08;33.13;;;14.60;99.90;;;;;;2602669;47;20085;31
2021/09/28 01:50:44;;;;;;;41.25;31.00;;;14.70;99.90;;;;;;2603252;46;20092;31
2021/09/28 01:53:18;;;;;;;43.75;32.95;;;14.60;99.90;;;;;;2603161;46;20085;31
2021/09/28 01:55:53;;;;;;;44.60;31.25;;;14.50;99.90;;;;;;2602810;47;20027;31
2021/09/28 01:58:34;;;;;;;36.08;28.30;;;14.60;99.90;;;;;;2602423;54;20073;31
2021/09/28 02:01:07;;;;;;;33.28;25.50;;;14.50;99.90;;;;;;2602471;47;20081;31
2021/09/28 02:03:42;;;;;;;36.35;27.65;;;14.50;99.90;;;;;;2603179;47;20914;31
2021/09/28 02:06:19;;;;;;;37.17;26.97;;;14.40;99.90;;;;;;2602942;47;20034;31
2021/09/28 02:08:51;;;;;;;39.78;29.25;;;14.40;99.90;;;;;;2601876;47;20080;31
2021/09/28 02:11:23;;;;;;;38.05;26.08;;;14.50;99.90;;;;;;2602550;47;20874;31
2021/09/28 02:14:02;;;;;;;30.90;24.95;;;14.40;99.90;;;;;;2603125;47;21305;31
2021/09/28 02:16:32;;;;;;;32.83;23.87;;;14.30;99.90;;;;;;2602554;54;20033;31
2021/09/28 02:19:07;;;;;;;28.38;21.90;;;14.30;99.90;;;;;;2603124;47;20862;31
2021/09/28 02:21:39;;;;;;;27.08;22.42;;;14.30;99.90;;;;;;2603039;47;20858;31
2021/09/28 02:24:21;;;;;;;31.00;25.63;;;14.30;99.90;;;;;;2602632;47;20991;31
2021/09/28 02:26:55;;;;;;;37.10;26.85;;;14.20;99.90;;;;;;2603631;46;20031;31
2021/09/28 02:29:27;;;;;;;29.00;23.60;;;14.20;99.90;;;;;;2603564;46;20112;31
2021/09/28 02:31:59;;;;;;;27.35;22.17;;;14.10;99.90;;;;;;2603744;46;20030;31
2021/09/28 02:34:37;;;;;;;29.40;24.05;;;14.10;99.90;;;;;;2603297;47;20049;31
2021/09/28 02:37:19;;;;;;;28.40;22.27;;;14.10;99.90;;;;;;2602618;46;20031;31
2021/09/28 02:40:02;;;;;;;31.67;24.13;;;14.10;99.90;;;;;;2602707;46;20026;31
2021/09/28 02:42:36;;;;;;;24.88;21.15;;;14.00;99.90;;;;;;2603303;54;20949;31
2021/09/28 02:45:31;;;;;;;25.60;21.50;;;14.00;99.90;;;;;;2603473;46;20030;31
2021/09/28 02:48:21;;;;;;;31.02;24.35;;;14.10;99.90;;;;;;2603160;46;20305;31
2021/09/28 02:51:04;;;;;;;25.27;20.23;;;14.10;99.90;;;;;;2603066;46;20027;31
2021/09/28 02:56:44;;;;;;;24.75;20.55;;;14.00;99.90;;;;;;2603235;46;20085;31
2021/09/28 02:59:16;;;;;;;25.38;21.52;;;14.00;99.90;;;;;;2603249;54;21006;31
2021/09/28 03:01:57;;;;;;;26.23;19.92;;;14.00;99.90;;;;;;2603290;46;20022;31
2021/09/28 03:04:36;;;;;;;25.90;18.75;;;13.90;99.90;;;;;;2603320;47;20034;31
2021/09/28 03:07:30;;;;;;;23.25;18.38;;;13.90;99.90;;;;;;2602999;54;20958;31
2021/09/28 03:10:05;;;;;;;22.70;17.85;;;14.00;99.90;;;;;;2602664;54;21353;31
2021/09/28 03:13:20;;;;;;;26.80;18.88;;;14.00;99.90;;;;;;2603388;54;20065;31
2021/09/28 03:16:25;;;;;;;28.27;23.02;;;14.00;99.90;;;;;;2602653;54;20026;31
2021/09/28 03:19:38;;;;;;;25.75;19.80;;;14.00;99.90;;;;;;2603225;54;20025;31
2021/09/28 03:25:43;;;;;;;27.93;22.77;;;14.00;99.90;;;;;;2601402;54;20003;31
2021/09/28 03:28:42;;;;;;;25.20;21.15;;;14.00;99.90;;;;;;2603341;46;20996;31
2021/09/28 03:34:29;;;;;;;24.45;19.88;;;13.90;99.90;;;;;;2601442;54;20046;31
2021/09/28 03:37:02;;;;;;;25.63;20.77;;;14.00;99.90;;;;;;2701318;39;20794;31
2021/09/28 03:39:53;;;;;;;22.70;18.98;;;14.00;99.90;;;;;;2603133;46;20986;31
2021/09/28 03:42:47;;;;;;;21.60;18.30;;;14.00;99.90;;;;;;2603072;54;20022;31
2021/09/28 03:45:19;;;;;;;26.87;22.23;;;14.00;99.90;;;;;;2603502;46;20246;31
2021/09/28 03:47:56;;;;;;;31.92;24.25;;;14.00;99.90;;;;;;2603152;46;20027;31
2021/09/28 03:53:33;;;;;;;32.80;24.33;;;13.90;99.90;;;;;;2603144;46;20034;31
2021/09/28 03:56:12;;;;;;;35.35;28.25;;;13.90;99.90;;;;;;2603167;46;21170;31
2021/09/28 03:58:50;;;;;;;34.85;28.15;;;13.90;99.90;;;;;;2603602;46;20031;31
2021/09/28 04:01:30;;;;;;;26.00;20.90;;;13.90;99.90;;;;;;2603305;46;20023;31
2021/09/28 04:04:35;;;;;;;30.60;25.08;;;13.90;99.90;;;;;;2603047;54;20023;31
2021/09/28 04:07:12;;;;;;;26.63;21.60;;;14.00;99.90;;;;;;2603045;46;20760;31
2021/09/28 04:09:49;;;;;;;32.28;26.33;;;14.00;99.90;;;;;;2603057;46;20026;31
2021/09/28 04:12:24;;;;;;;;;;;14.10;99.90;;;;;;2603218;46;21346;31
2021/09/28 04:14:59;;;;;;;28.05;21.20;;;14.10;99.90;;;;;;2603612;46;19935;31
2021/09/28 04:17:47;;;;;;;30.07;24.40;;;14.10;99.90;;;;;;2603175;46;20049;31
2021/09/28 04:20:39;;;;;;;36.47;28.83;;;14.10;99.90;;;;;;2602656;46;20069;31
2021/09/28 04:23:43;;;;;;;33.73;25.73;;;14.10;99.90;;;;;;2602894;46;20048;31
2021/09/28 04:26:49;;;;;;;34.88;26.08;;;14.20;99.90;;;;;;2602933;54;20030;31
2021/09/28 04:29:25;;;;;;;34.25;25.65;;;14.20;99.90;;;;;;2603121;46;20732;31
2021/09/28 04:32:02;;;;;;;34.63;23.65;;;14.20;99.90;;;;;;2602907;46;20026;31
2021/09/28 04:34:49;;;;;;;;;;;14.20;99.90;;;;;;2603370;46;20038;31
2021/09/28 04:37:39;;;;;;;29.60;22.52;;;14.20;99.90;;;;;;2603059;54;20789;31
2021/09/28 04:40:27;;;;;;;30.08;22.83;;;14.20;99.90;;;;;;2602725;46;20022;31
2021/09/28 04:43:26;;;;;;;24.70;21.73;;;14.20;99.90;;;;;;2602857;54;20031;31
2021/09/28 04:55:41;;;;;;;31.85;24.13;;;14.30;99.90;;;;;;2640449;39;20185;-95
2021/09/28 04:58:39;;;;;;;31.73;25.95;;;14.30;99.90;;;;;;2603058;46;21004;31
2021/09/28 05:01:52;;;;;;;34.92;24.88;;;14.30;99.90;;;;;;2602877;46;20069;31
2021/09/28 05:04:28;;;;;;;26.20;20.75;;;14.30;99.90;;;;;;2602792;46;20040;31
2021/09/28 05:07:02;;;;;;;23.63;19.50;;;14.30;99.90;;;;;;2602879;54;20034;31
2021/09/28 05:09:33;;;;;;;28.92;21.23;;;14.30;99.90;;;;;;2603379;46;20035;31
2021/09/28 05:12:05;;;;;;;26.15;20.35;;;14.30;99.90;;;;;;2603383;46;20741;31
2021/09/28 05:14:36;;;;;;;27.73;22.83;;;14.30;99.90;;;;;;2603336;46;20745;31
2021/09/28 05:17:07;;;;;;;24.77;19.02;;;14.30;99.90;;;;;;2603368;46;20919;31
2021/09/28 05:19:38;;;;;;;31.17;23.05;;;14.40;99.90;;;;;;2603376;46;20034;31
2021/09/28 05:22:09;;;;;;;29.35;20.63;;;14.40;99.90;;;;;;2603293;46;20071;31
2021/09/28 05:24:40;;;;;;;23.33;17.60;;;14.40;99.90;;;;;;2602967;54;20779;31
2021/09/28 05:27:11;;;;;;;28.70;22.30;;;14.50;99.90;;;;;;2603257;47;20843;31
2021/09/28 05:29:42;;;;;;;28.08;20.40;;;14.40;99.90;;;;;;2603312;46;20093;31
2021/09/28 05:32:13;;;;;;;24.60;20.17;;;14.40;99.90;;;;;;2603247;46;20050;31
2021/09/28 05:34:44;;;;;;;27.65;21.27;;;14.50;99.90;;;;;;2603251;46;20913;31
2021/09/28 05:37:15;;;;;;;27.52;20.27;;;14.40;99.90;;;;;;2603345;46;20842;31
2021/09/28 05:39:46;;;;;;;25.08;19.90;;;14.50;99.90;;;;;;2603059;46;20022;31
2021/09/28 05:42:17;;;;;;;24.73;19.67;;;14.50;99.90;;;;;;2603115;46;20857;31
2021/09/28 05:44:51;;;;;;;28.85;20.33;;;14.50;99.90;;;;;;2603361;46;20030;31
2021/09/28 05:47:25;;;;;;;23.33;19.13;;;14.60;99.90;;;;;;2603232;46;20722;31
2021/09/28 05:49:59;;;;;;;31.90;19.80;;;14.60;99.90;;;;;;2602803;54;20084;31
2021/09/28 05:52:36;;;;;;;28.88;21.33;;;14.60;99.90;;;;;;2602866;54;20072;31
2021/09/28 05:55:07;;;;;;;27.00;19.75;;;14.70;99.90;;;;;;2603188;47;20863;31
2021/09/28 05:57:43;;;;;;;29.55;20.10;;;14.70;99.90;;;;;;2603215;46;20872;31
2021/09/28 06:00:15;;;;;;;22.27;16.77;;;14.80;99.90;;;;;;2602775;47;20113;31
2021/09/28 06:02:48;;;;;;;27.23;18.63;;;14.80;99.90;;;;;;2602768;54;20022;31
2021/09/28 06:05:22;;;;;;;25.25;21.38;;;14.70;99.90;;;;;;2602641;54;20085;31
2021/09/28 06:07:53;;;;;;;26.38;18.25;;;14.80;99.90;;;;;;2603101;47;20723;31
2021/09/28 06:10:32;;;;;;;27.05;20.08;;;14.80;99.90;;;;;;2602581;47;20922;31
2021/09/28 06:13:07;;;;;;;29.23;20.83;;;15.00;99.90;;;;;;2602553;47;20887;31
2021/09/28 06:15:41;;;;;;;25.20;18.83;;;14.90;99.90;;;;;;2602911;47;20996;31
2021/09/28 06:18:12;;;;;;;25.15;19.52;;;15.00;99.90;;;;;;2603049;47;20089;31
2021/09/28 06:20:48;;;;;;;23.70;19.05;;;15.00;99.90;;;;;;2602675;47;20817;31
2021/09/28 06:23:22;;;;;;;30.77;20.73;;;15.00;99.90;;;;;;2602522;47;20089;31
2021/09/28 06:37:56;;;;;;;28.40;18.35;;;15.00;99.90;;;;;;2600722;54;20058;31
2021/09/28 06:40:36;;;;;;;26.98;18.10;;;15.00;99.90;;;;;;2602813;47;20026;31
2021/09/28 06:46:26;;;;;;;27.55;19.05;;;15.00;99.90;;;;;;2601834;54;20599;31
2021/09/28 06:51:48;;;;;;;28.83;20.67;;;15.10;99.90;;;;;;2603021;47;20068;31
2021/09/28 06:54:20;;;;;;;30.00;19.00;;;15.10;99.90;;;;;;2602913;47;20879;31
2021/09/28 06:56:51;;;;;;;37.73;22.53;;;15.10;99.90;;;;;;2603022;47;20027;31
2021/09/28 06:59:23;;;;;;;34.77;21.50;;;15.10;99.90;;;;;;2602397;54;20372;31
2021/09/28 07:02:03;;;;;;;38.08;20.73;;;15.10;99.90;;;;;;2602807;47;21111;31
2021/09/28 07:04:35;;;;;;;41.15;21.25;;;15.00;99.90;;;;;;2603036;47;20883;31
2021/09/28 07:26:17;;;;;;;42.40;21.80;;;15.10;99.90;;;;;;2602965;54;20077;31
2021/09/28 07:28:49;;;;;;;44.50;21.92;;;15.10;99.90;;;;;;2603838;46;21156;31
2021/09/28 07:31:20;;;;;;;59.80;25.50;;;15.20;99.90;;;;;;2603128;46;20876;31
2021/09/28 07:33:51;;;;;;;60.92;27.25;;;15.20;99.90;;;;;;2603648;46;20876;31
2021/09/28 07:36:35;;;;;;;66.85;28.70;;;15.20;99.90;;;;;;2603764;46;22448;31
2021/09/28 07:39:06;;;;;;;81.83;30.43;;;15.20;99.90;;;;;;2603632;46;20061;31
2021/09/28 07:41:37;;;;;;;77.30;30.70;;;15.10;99.90;;;;;;2603557;46;21184;31
2021/09/28 07:44:06;;;;;;;76.45;29.60;;;15.20;99.90;;;;;;2603218;46;21187;31
2021/09/28 07:46:35;;;;;;;74.90;28.17;;;15.20;99.90;;;;;;2702322;39;22431;31
2021/09/28 07:49:06;;;;;;;71.72;30.48;;;15.10;99.90;;;;;;2603683;46;20765;31
2021/09/28 07:51:37;;;;;;;65.80;27.55;;;15.20;99.90;;;;;;2603576;46;20085;31
2021/09/28 07:54:08;;;;;;;61.03;24.52;;;15.20;99.90;;;;;;2603684;46;20921;31
